createdAt,value
2023-06-30T00:12:20.682Z,93.13
2023-06-30T00:27:20.497Z,91.02
2023-06-30T00:42:20.349Z,86.86
2023-06-30T00:57:20.149Z,83.67
2023-06-30T01:12:20.075Z,84.33
2023-06-30T01:27:19.837Z,91.58
2023-06-30T01:42:19.684Z,93.38
2023-06-30T01:57:19.513Z,93.88
2023-06-30T02:12:19.397Z,94.28
2023-06-30T02:27:19.181Z,94.89
2023-06-30T02:42:19.029Z,95.03
2023-06-30T02:57:18.860Z,96.69
2023-06-30T03:12:18.694Z,98.49
2023-06-30T03:27:18.623Z,99.99
2023-06-30T03:42:18.406Z,99.99
2023-06-30T03:57:18.207Z,99.99
2023-06-30T04:12:18.031Z,99.99
2023-06-30T04:27:17.872Z,99.99
2023-06-30T04:42:17.720Z,99.99
2023-06-30T04:57:17.548Z,99.99
2023-06-30T05:12:17.390Z,99.99
2023-06-30T05:27:17.245Z,99.99
2023-06-30T05:42:17.050Z,97.15
2023-06-30T05:57:16.948Z,93.11
2023-06-30T06:12:16.739Z,88.02
2023-06-30T06:27:16.603Z,89.12
2023-06-30T06:42:16.414Z,91.22
2023-06-30T06:57:16.297Z,88.12
2023-06-30T07:12:16.111Z,86.98
2023-06-30T07:27:15.962Z,87.71
2023-06-30T07:42:15.786Z,85.15
2023-06-30T07:57:15.770Z,83.85
2023-06-30T08:12:15.493Z,84.35
2023-06-30T08:27:15.322Z,79.86
2023-06-30T08:42:15.152Z,79.91
2023-06-30T08:57:15.052Z,78.93
2023-06-30T09:12:14.889Z,79.25
2023-06-30T09:27:14.731Z,80.35
2023-06-30T09:42:14.625Z,75.26
2023-06-30T09:57:16.507Z,82.69
2023-06-30T10:12:14.185Z,88.18
2023-06-30T10:27:14.060Z,88.98
2023-06-30T10:42:13.850Z,87.96
2023-06-30T10:57:13.713Z,87.18
2023-06-30T11:12:13.583Z,90.16
2023-06-30T11:27:13.400Z,85.49
2023-06-30T11:42:13.273Z,84.63
2023-06-30T11:57:13.083Z,86.04
2023-06-30T12:12:12.891Z,92.60
2023-06-30T12:27:12.798Z,89.85
2023-06-30T12:42:13.086Z,90.35
2023-06-30T12:57:12.429Z,89.98
2023-06-30T13:12:12.286Z,90.72
2023-06-30T13:27:12.186Z,90.92
2023-06-30T13:42:12.007Z,89.66
2023-06-30T13:57:11.758Z,88.41
2023-06-30T14:12:11.656Z,87.02
2023-06-30T14:27:11.443Z,86.66
2023-06-30T14:42:22.924Z,88.47
2023-06-30T14:57:11.119Z,84.97
2023-06-30T15:12:10.948Z,80.98
2023-06-30T15:27:10.803Z,82.65
2023-06-30T15:42:11.669Z,84.75
2023-06-30T15:57:10.507Z,87.85
2023-06-30T16:12:10.541Z,88.85
2023-06-30T16:27:10.163Z,89.20
2023-06-30T16:42:10.028Z,88.64
2023-06-30T16:57:09.927Z,87.53
2023-06-30T17:12:09.731Z,86.32
2023-06-30T17:27:09.491Z,86.46
2023-06-30T17:42:10.040Z,86.97
2023-06-30T17:57:09.224Z,88.92
2023-06-30T18:12:09.097Z,86.30
2023-06-30T18:27:08.908Z,90.94
2023-06-30T18:42:08.705Z,90.23
2023-06-30T18:57:08.538Z,85.54
2023-06-30T19:12:08.351Z,87.15
2023-06-30T19:27:08.218Z,88.60
2023-06-30T19:42:10.039Z,92.07
2023-06-30T19:57:07.855Z,88.45
2023-06-30T20:12:07.920Z,95.04
2023-06-30T20:27:07.563Z,93.63
2023-06-30T20:42:07.425Z,95.19
2023-06-30T20:57:07.221Z,95.09
2023-06-30T21:12:07.032Z,96.20
2023-06-30T21:27:06.908Z,97.16
2023-06-30T21:42:06.715Z,94.04
2023-06-30T21:57:06.548Z,93.89
2023-06-30T22:12:06.391Z,92.68
2023-06-30T22:27:06.263Z,92.18
2023-06-30T22:42:06.089Z,92.58
2023-06-30T22:57:05.899Z,93.08
2023-06-30T23:12:05.738Z,93.93
2023-06-30T23:27:05.576Z,96.80
2023-06-30T23:42:05.416Z,98.46
2023-06-30T23:57:05.235Z,98.96
